Normand Subsea — 2CQP8 — position and weather

sailwx.info

Track history (hours):
 
Tides and Currents Weather Stations Pressure Air Temp Water Temp Dewpoint Dewpoint Depression Visibility Wind Speed Wind Dir Waves Ship Positions

Normand Subsea

Last reported at 2014-Oct-22 21:26 UTC. Time now 2014-Oct-30 22:58 UTC.
Position N 57°27' W 001°22'.
Warning: this ship's position is 8 days out of date.

Length 113 m; draft 7.7 m.

Type: Other ship. MMSI: 235074949.

Date/timePositionNaut miles runAvg speedWind from/ knotsBaromVisibWave heightAir tempDewpointWater temp
2014-Oct-22 21:26N 57°27' W 001°22'910.7
2014-Oct-22 20:33N 57°28' W 001°39'4 4.3
2014-Oct-22 19:33N 57°30' W 001°47'0 0.0
2014-Oct-22 18:30N 57°30' W 001°47'0 0.0
2014-Oct-22 17:33N 57°30' W 001°47'0 0.0
2014-Oct-22 16:30N 57°30' W 001°47'0 0.0
2014-Oct-22 15:33N 57°30' W 001°47'0 0.0
2014-Oct-22 14:33N 57°30' W 001°47'0 0.0
2014-Oct-22 13:33N 57°30' W 001°47'0 0.0
2014-Oct-22 12:33N 57°30' W 001°47'0 0.0
2014-Oct-22 11:33N 57°30' W 001°47'0 0.0
2014-Oct-22 10:33N 57°30' W 001°47'0 0.0
2014-Oct-22 09:33N 57°30' W 001°47'0 0.0
2014-Oct-22 08:33N 57°30' W 001°47'0 0.0
2014-Oct-22 07:33N 57°30' W 001°47'0 0.0
2014-Oct-22 06:33N 57°30' W 001°47'4 4.0
2014-Oct-22 05:34N 57°28' W 001°41'4 4.2
2014-Oct-22 04:34N 57°26' W 001°33'9 8.8
2014-Oct-22 03:33N 57°23' W 001°19'  
2014-Oct-14 06:32N 57°24' W 001°26'1010.4
2014-Oct-14 05:34N 57°28' W 001°43'3 2.5
2014-Oct-14 04:31N 57°30' W 001°47'0 0.0
2014-Oct-14 03:31N 57°30' W 001°47'0 0.0
2014-Oct-14 02:31N 57°30' W 001°47'0 0.0
2014-Oct-14 01:31N 57°30' W 001°47'0 0.0
2014-Oct-14 00:31N 57°30' W 001°47'0 0.0
2014-Oct-13 23:31N 57°30' W 001°47'0 0.0
2014-Oct-13 22:28N 57°30' W 001°47'0 0.0
2014-Oct-13 21:31N 57°30' W 001°47'0 0.0
2014-Oct-13 20:28N 57°30' W 001°47'0 0.0
2014-Oct-13 19:31N 57°30' W 001°47'0 0.0
2014-Oct-13 18:31N 57°30' W 001°47'0 0.0
2014-Oct-13 17:31N 57°30' W 001°47'0 0.0
2014-Oct-13 16:31N 57°30' W 001°47'0 0.0
2014-Oct-13 15:31N 57°30' W 001°47'0 0.0
2014-Oct-13 14:31N 57°30' W 001°47'0 0.0
2014-Oct-13 13:31N 57°30' W 001°47'0 0.0
2014-Oct-13 12:31N 57°30' W 001°47'0 0.0
2014-Oct-13 11:31N 57°30' W 001°47'0 0.0
2014-Oct-13 10:31N 57°30' W 001°47'0 0.0
2014-Oct-13 09:31N 57°30' W 001°47'0 0.0
2014-Oct-13 08:31N 57°30' W 001°47'0 0.2
2014-Oct-13 07:33N 57°30' W 001°47'5 5.4
2014-Oct-13 06:33N 57°27' W 001°38'9 9.3
2014-Oct-13 05:33N 57°23' W 001°22'  
Track history (hours):
 
Tides and Currents Weather Stations Pressure Air Temp Water Temp Dewpoint Dewpoint Depression Visibility Wind Speed Wind Dir Waves Ship Positions

Normand Subsea

Last reported at 2014-Oct-22 21:26 UTC. Time now 2014-Oct-30 22:58 UTC.
Position N 57°27' W 001°22'.
Warning: this ship's position is 8 days out of date.

Length 113 m; draft 7.7 m.

Type: Other ship. MMSI: 235074949.

Date/timePositionNaut miles runAvg speedWind from/ knotsBaromVisibWave heightAir tempDewpointWater temp
2014-Oct-22 21:26N 57°27' W 001°22'910.7
2014-Oct-22 20:33N 57°28' W 001°39'4 4.3
2014-Oct-22 19:33N 57°30' W 001°47'0 0.0
2014-Oct-22 18:30N 57°30' W 001°47'0 0.0
2014-Oct-22 17:33N 57°30' W 001°47'0 0.0
2014-Oct-22 16:30N 57°30' W 001°47'0 0.0
2014-Oct-22 15:33N 57°30' W 001°47'0 0.0
2014-Oct-22 14:33N 57°30' W 001°47'0 0.0
2014-Oct-22 13:33N 57°30' W 001°47'0 0.0
2014-Oct-22 12:33N 57°30' W 001°47'0 0.0
2014-Oct-22 11:33N 57°30' W 001°47'0 0.0
2014-Oct-22 10:33N 57°30' W 001°47'0 0.0
2014-Oct-22 09:33N 57°30' W 001°47'0 0.0
2014-Oct-22 08:33N 57°30' W 001°47'0 0.0
2014-Oct-22 07:33N 57°30' W 001°47'0 0.0
2014-Oct-22 06:33N 57°30' W 001°47'4 4.0
2014-Oct-22 05:34N 57°28' W 001°41'4 4.2
2014-Oct-22 04:34N 57°26' W 001°33'9 8.8
2014-Oct-22 03:33N 57°23' W 001°19'  
2014-Oct-14 06:32N 57°24' W 001°26'1010.4
2014-Oct-14 05:34N 57°28' W 001°43'3 2.5
2014-Oct-14 04:31N 57°30' W 001°47'0 0.0
2014-Oct-14 03:31N 57°30' W 001°47'0 0.0
2014-Oct-14 02:31N 57°30' W 001°47'0 0.0
2014-Oct-14 01:31N 57°30' W 001°47'0 0.0
2014-Oct-14 00:31N 57°30' W 001°47'0 0.0
2014-Oct-13 23:31N 57°30' W 001°47'0 0.0
2014-Oct-13 22:28N 57°30' W 001°47'0 0.0
2014-Oct-13 21:31N 57°30' W 001°47'0 0.0
2014-Oct-13 20:28N 57°30' W 001°47'0 0.0
2014-Oct-13 19:31N 57°30' W 001°47'0 0.0
2014-Oct-13 18:31N 57°30' W 001°47'0 0.0
2014-Oct-13 17:31N 57°30' W 001°47'0 0.0
2014-Oct-13 16:31N 57°30' W 001°47'0 0.0
2014-Oct-13 15:31N 57°30' W 001°47'0 0.0
2014-Oct-13 14:31N 57°30' W 001°47'0 0.0
2014-Oct-13 13:31N 57°30' W 001°47'0 0.0
2014-Oct-13 12:31N 57°30' W 001°47'0 0.0
2014-Oct-13 11:31N 57°30' W 001°47'0 0.0
2014-Oct-13 10:31N 57°30' W 001°47'0 0.0
2014-Oct-13 09:31N 57°30' W 001°47'0 0.0
2014-Oct-13 08:31N 57°30' W 001°47'0 0.2
2014-Oct-13 07:33N 57°30' W 001°47'5 5.4
2014-Oct-13 06:33N 57°27' W 001°38'9 9.3
2014-Oct-13 05:33N 57°23' W 001°22'  

Dump ship's entire track history